sensor_id;sensor_type;location;lat;lon;timestamp;P1;durP1;ratioP1;P2;durP2;ratioP2
15665;SDS011;20725;51.196;3.510;2023-04-12T00:04:17;6.07;;;3.03;;
15665;SDS011;20725;51.196;3.510;2023-04-12T00:06:46;5.23;;;3.90;;
15665;SDS011;20725;51.196;3.510;2023-04-12T00:09:14;4.13;;;2.80;;
15665;SDS011;20725;51.196;3.510;2023-04-12T00:11:41;5.90;;;4.00;;
15665;SDS011;20725;51.196;3.510;2023-04-12T00:14:09;4.47;;;3.00;;
15665;SDS011;20725;51.196;3.510;2023-04-12T00:16:37;3.50;;;2.67;;
15665;SDS011;20725;51.196;3.510;2023-04-12T00:19:04;4.03;;;2.67;;
15665;SDS011;20725;51.196;3.510;2023-04-12T00:21:31;3.47;;;2.80;;
15665;SDS011;20725;51.196;3.510;2023-04-12T00:23:58;3.73;;;2.83;;
15665;SDS011;20725;51.196;3.510;2023-04-12T00:26:26;3.20;;;2.90;;
15665;SDS011;20725;51.196;3.510;2023-04-12T00:28:53;4.30;;;3.13;;
15665;SDS011;20725;51.196;3.510;2023-04-12T00:31:22;2.73;;;2.23;;
15665;SDS011;20725;51.196;3.510;2023-04-12T00:33:49;7.00;;;3.23;;
15665;SDS011;20725;51.196;3.510;2023-04-12T00:36:17;7.93;;;3.50;;
15665;SDS011;20725;51.196;3.510;2023-04-12T00:38:44;5.50;;;2.50;;
15665;SDS011;20725;51.196;3.510;2023-04-12T00:41:11;6.23;;;3.07;;
15665;SDS011;20725;51.196;3.510;2023-04-12T00:43:38;5.17;;;2.50;;
15665;SDS011;20725;51.196;3.510;2023-04-12T00:46:06;7.67;;;2.73;;
15665;SDS011;20725;51.196;3.510;2023-04-12T00:48:35;5.10;;;2.67;;
15665;SDS011;20725;51.196;3.510;2023-04-12T00:51:02;3.10;;;2.80;;
15665;SDS011;20725;51.196;3.510;2023-04-12T00:53:29;4.33;;;2.33;;
15665;SDS011;20725;51.196;3.510;2023-04-12T00:55:57;4.67;;;2.67;;
15665;SDS011;20725;51.196;3.510;2023-04-12T00:58:25;5.47;;;3.07;;
15665;SDS011;20725;51.196;3.510;2023-04-12T01:06:03;3.73;;;2.40;;
15665;SDS011;20725;51.196;3.510;2023-04-12T01:08:37;5.57;;;3.30;;
15665;SDS011;20725;51.196;3.510;2023-04-12T01:11:07;8.10;;;4.20;;
15665;SDS011;20725;51.196;3.510;2023-04-12T01:13:38;6.37;;;2.20;;
15665;SDS011;20725;51.196;3.510;2023-04-12T01:16:06;4.00;;;2.33;;
15665;SDS011;20725;51.196;3.510;2023-04-12T01:18:36;4.00;;;2.23;;
15665;SDS011;20725;51.196;3.510;2023-04-12T01:21:07;4.70;;;3.17;;
15665;SDS011;20725;51.196;3.510;2023-04-12T01:23:42;5.33;;;2.10;;
15665;SDS011;20725;51.196;3.510;2023-04-12T01:26:12;4.20;;;2.90;;
15665;SDS011;20725;51.196;3.510;2023-04-12T01:28:47;5.40;;;3.13;;
15665;SDS011;20725;51.196;3.510;2023-04-12T01:31:16;4.97;;;3.20;;
15665;SDS011;20725;51.196;3.510;2023-04-12T01:33:44;5.67;;;2.90;;
15665;SDS011;20725;51.196;3.510;2023-04-12T01:36:12;4.70;;;2.93;;
15665;SDS011;20725;51.196;3.510;2023-04-12T01:38:40;11.53;;;3.10;;
15665;SDS011;20725;51.196;3.510;2023-04-12T01:41:08;5.70;;;2.67;;
15665;SDS011;20725;51.196;3.510;2023-04-12T01:43:39;2.57;;;2.37;;
15665;SDS011;20725;51.196;3.510;2023-04-12T01:46:08;6.67;;;3.13;;
15665;SDS011;20725;51.196;3.510;2023-04-12T01:48:35;4.77;;;2.63;;
15665;SDS011;20725;51.196;3.510;2023-04-12T01:51:03;2.57;;;2.40;;
15665;SDS011;20725;51.196;3.510;2023-04-12T01:53:32;3.30;;;3.00;;
15665;SDS011;20725;51.196;3.510;2023-04-12T01:56:03;4.20;;;3.80;;
15665;SDS011;20725;51.196;3.510;2023-04-12T01:58:33;3.27;;;2.83;;
15665;SDS011;20725;51.196;3.510;2023-04-12T02:01:00;2.83;;;2.33;;
15665;SDS011;20725;51.196;3.510;2023-04-12T02:03:31;6.23;;;3.80;;
15665;SDS011;20725;51.196;3.510;2023-04-12T02:05:59;7.80;;;4.13;;
15665;SDS011;20725;51.196;3.510;2023-04-12T02:08:26;2.90;;;2.67;;
15665;SDS011;20725;51.196;3.510;2023-04-12T02:10:53;4.40;;;3.97;;
15665;SDS011;20725;51.196;3.510;2023-04-12T02:13:20;4.17;;;3.87;;
15665;SDS011;20725;51.196;3.510;2023-04-12T02:15:48;5.17;;;2.97;;
15665;SDS011;20725;51.196;3.510;2023-04-12T02:18:18;4.30;;;3.50;;
15665;SDS011;20725;51.196;3.510;2023-04-12T02:20:49;3.77;;;3.47;;
15665;SDS011;20725;51.196;3.510;2023-04-12T02:23:16;6.53;;;4.10;;
15665;SDS011;20725;51.196;3.510;2023-04-12T02:25:44;7.50;;;5.37;;
15665;SDS011;20725;51.196;3.510;2023-04-12T02:28:11;6.20;;;5.53;;
15665;SDS011;20725;51.196;3.510;2023-04-12T02:30:39;5.63;;;5.10;;
15665;SDS011;20725;51.196;3.510;2023-04-12T02:33:06;4.03;;;3.70;;
15665;SDS011;20725;51.196;3.510;2023-04-12T02:35:34;7.07;;;5.97;;
15665;SDS011;20725;51.196;3.510;2023-04-12T02:38:02;3.27;;;2.97;;
15665;SDS011;20725;51.196;3.510;2023-04-12T02:40:32;6.83;;;4.53;;
15665;SDS011;20725;51.196;3.510;2023-04-12T02:43:00;6.63;;;3.63;;
15665;SDS011;20725;51.196;3.510;2023-04-12T02:45:27;5.27;;;3.83;;
15665;SDS011;20725;51.196;3.510;2023-04-12T02:47:54;3.13;;;2.80;;
15665;SDS011;20725;51.196;3.510;2023-04-12T02:50:21;6.47;;;4.57;;
15665;SDS011;20725;51.196;3.510;2023-04-12T02:52:48;6.33;;;3.10;;
15665;SDS011;20725;51.196;3.510;2023-04-12T02:55:17;7.77;;;4.47;;
15665;SDS011;20725;51.196;3.510;2023-04-12T02:57:44;5.03;;;3.63;;
15665;SDS011;20725;51.196;3.510;2023-04-12T03:00:11;4.10;;;3.70;;
15665;SDS011;20725;51.196;3.510;2023-04-12T03:02:40;6.57;;;5.20;;
15665;SDS011;20725;51.196;3.510;2023-04-12T03:05:07;7.73;;;6.03;;
15665;SDS011;20725;51.196;3.510;2023-04-12T03:07:34;4.47;;;4.07;;
15665;SDS011;20725;51.196;3.510;2023-04-12T03:10:02;7.50;;;3.93;;
15665;SDS011;20725;51.196;3.510;2023-04-12T03:12:32;11.03;;;6.13;;
15665;SDS011;20725;51.196;3.510;2023-04-12T03:15:00;8.07;;;6.27;;
15665;SDS011;20725;51.196;3.510;2023-04-12T03:17:27;7.87;;;7.07;;
15665;SDS011;20725;51.196;3.510;2023-04-12T03:19:54;7.57;;;6.87;;
15665;SDS011;20725;51.196;3.510;2023-04-12T03:22:22;8.13;;;7.33;;
15665;SDS011;20725;51.196;3.510;2023-04-12T03:24:50;7.77;;;7.07;;
15665;SDS011;20725;51.196;3.510;2023-04-12T03:27:18;10.23;;;8.07;;
15665;SDS011;20725;51.196;3.510;2023-04-12T03:29:47;8.70;;;6.83;;
15665;SDS011;20725;51.196;3.510;2023-04-12T03:32:14;10.73;;;6.87;;
15665;SDS011;20725;51.196;3.510;2023-04-12T03:34:41;8.73;;;7.87;;
15665;SDS011;20725;51.196;3.510;2023-04-12T03:37:09;12.40;;;7.27;;
15665;SDS011;20725;51.196;3.510;2023-04-12T03:39:36;10.97;;;7.63;;
15665;SDS011;20725;51.196;3.510;2023-04-12T03:42:04;8.07;;;7.10;;
15665;SDS011;20725;51.196;3.510;2023-04-12T03:44:31;9.30;;;8.40;;
15665;SDS011;20725;51.196;3.510;2023-04-12T03:46:59;10.60;;;9.33;;
15665;SDS011;20725;51.196;3.510;2023-04-12T03:49:27;8.93;;;8.03;;
15665;SDS011;20725;51.196;3.510;2023-04-12T03:51:54;8.00;;;7.30;;
15665;SDS011;20725;51.196;3.510;2023-04-12T03:54:22;7.33;;;6.63;;
15665;SDS011;20725;51.196;3.510;2023-04-12T03:56:49;8.83;;;6.37;;
15665;SDS011;20725;51.196;3.510;2023-04-12T03:59:16;9.57;;;5.67;;
15665;SDS011;20725;51.196;3.510;2023-04-12T04:01:44;11.30;;;6.30;;
15665;SDS011;20725;51.196;3.510;2023-04-12T04:04:12;8.70;;;5.07;;
15665;SDS011;20725;51.196;3.510;2023-04-12T04:06:40;6.53;;;5.40;;
15665;SDS011;20725;51.196;3.510;2023-04-12T04:09:07;7.63;;;4.33;;
15665;SDS011;20725;51.196;3.510;2023-04-12T04:11:34;9.47;;;4.63;;
15665;SDS011;20725;51.196;3.510;2023-04-12T04:14:01;6.87;;;4.17;;
15665;SDS011;20725;51.196;3.510;2023-04-12T04:16:29;10.43;;;4.27;;
15665;SDS011;20725;51.196;3.510;2023-04-12T04:18:56;9.67;;;4.03;;
15665;SDS011;20725;51.196;3.510;2023-04-12T04:21:24;11.27;;;4.03;;
15665;SDS011;20725;51.196;3.510;2023-04-12T04:23:54;10.30;;;4.13;;
15665;SDS011;20725;51.196;3.510;2023-04-12T04:26:22;8.90;;;4.47;;
15665;SDS011;20725;51.196;3.510;2023-04-12T04:28:57;10.43;;;3.77;;
15665;SDS011;20725;51.196;3.510;2023-04-12T04:31:27;11.40;;;3.57;;
15665;SDS011;20725;51.196;3.510;2023-04-12T04:33:58;9.37;;;3.20;;
15665;SDS011;20725;51.196;3.510;2023-04-12T04:36:28;10.97;;;4.00;;
15665;SDS011;20725;51.196;3.510;2023-04-12T04:38:56;8.23;;;3.30;;
15665;SDS011;20725;51.196;3.510;2023-04-12T04:41:23;11.93;;;3.93;;
15665;SDS011;20725;51.196;3.510;2023-04-12T04:43:51;13.37;;;3.50;;
15665;SDS011;20725;51.196;3.510;2023-04-12T04:46:19;9.83;;;3.63;;
15665;SDS011;20725;51.196;3.510;2023-04-12T04:48:46;12.43;;;3.77;;
15665;SDS011;20725;51.196;3.510;2023-04-12T04:51:14;11.50;;;3.37;;
15665;SDS011;20725;51.196;3.510;2023-04-12T04:53:42;12.70;;;3.27;;
15665;SDS011;20725;51.196;3.510;2023-04-12T04:56:10;8.87;;;3.10;;
15665;SDS011;20725;51.196;3.510;2023-04-12T04:58:37;15.57;;;3.47;;
15665;SDS011;20725;51.196;3.510;2023-04-12T05:01:05;12.40;;;3.73;;
15665;SDS011;20725;51.196;3.510;2023-04-12T05:03:32;10.07;;;3.43;;
15665;SDS011;20725;51.196;3.510;2023-04-12T05:06:01;12.77;;;3.20;;
15665;SDS011;20725;51.196;3.510;2023-04-12T05:08:28;9.47;;;3.83;;
15665;SDS011;20725;51.196;3.510;2023-04-12T05:10:57;14.07;;;3.50;;
15665;SDS011;20725;51.196;3.510;2023-04-12T05:13:24;14.97;;;3.73;;
15665;SDS011;20725;51.196;3.510;2023-04-12T05:15:51;9.67;;;3.03;;
15665;SDS011;20725;51.196;3.510;2023-04-12T05:18:18;16.57;;;3.77;;
15665;SDS011;20725;51.196;3.510;2023-04-12T05:20:46;11.70;;;3.53;;
15665;SDS011;20725;51.196;3.510;2023-04-12T05:23:13;11.63;;;3.73;;
15665;SDS011;20725;51.196;3.510;2023-04-12T05:25:44;15.10;;;3.70;;
15665;SDS011;20725;51.196;3.510;2023-04-12T05:28:14;10.50;;;3.37;;
15665;SDS011;20725;51.196;3.510;2023-04-12T05:30:41;16.13;;;3.50;;
15665;SDS011;20725;51.196;3.510;2023-04-12T05:33:08;13.03;;;3.67;;
15665;SDS011;20725;51.196;3.510;2023-04-12T05:35:36;12.37;;;3.20;;
15665;SDS011;20725;51.196;3.510;2023-04-12T05:38:03;13.43;;;3.50;;
15665;SDS011;20725;51.196;3.510;2023-04-12T05:40:30;15.37;;;3.87;;
15665;SDS011;20725;51.196;3.510;2023-04-12T05:42:57;17.00;;;3.67;;
15665;SDS011;20725;51.196;3.510;2023-04-12T05:45:26;22.30;;;3.77;;
15665;SDS011;20725;51.196;3.510;2023-04-12T05:47:53;15.93;;;3.67;;
15665;SDS011;20725;51.196;3.510;2023-04-12T05:50:20;15.13;;;4.03;;
15665;SDS011;20725;51.196;3.510;2023-04-12T05:52:49;12.87;;;3.90;;
15665;SDS011;20725;51.196;3.510;2023-04-12T05:55:17;14.77;;;3.70;;
15665;SDS011;20725;51.196;3.510;2023-04-12T05:57:45;15.80;;;4.77;;
15665;SDS011;20725;51.196;3.510;2023-04-12T06:00:13;17.60;;;3.70;;
15665;SDS011;20725;51.196;3.510;2023-04-12T06:02:44;14.40;;;3.40;;
15665;SDS011;20725;51.196;3.510;2023-04-12T06:05:12;18.13;;;4.00;;
15665;SDS011;20725;51.196;3.510;2023-04-12T06:07:39;18.87;;;4.00;;
15665;SDS011;20725;51.196;3.510;2023-04-12T06:10:11;14.40;;;3.40;;
15665;SDS011;20725;51.196;3.510;2023-04-12T06:12:38;15.13;;;3.20;;
15665;SDS011;20725;51.196;3.510;2023-04-12T06:15:05;13.77;;;3.60;;
15665;SDS011;20725;51.196;3.510;2023-04-12T06:17:33;13.17;;;3.83;;
15665;SDS011;20725;51.196;3.510;2023-04-12T06:20:01;15.80;;;3.30;;
15665;SDS011;20725;51.196;3.510;2023-04-12T06:22:32;15.40;;;4.47;;
15665;SDS011;20725;51.196;3.510;2023-04-12T06:24:59;11.63;;;3.40;;
15665;SDS011;20725;51.196;3.510;2023-04-12T06:27:26;12.87;;;3.47;;
15665;SDS011;20725;51.196;3.510;2023-04-12T06:29:53;14.07;;;3.97;;
15665;SDS011;20725;51.196;3.510;2023-04-12T06:32:20;13.97;;;3.40;;
15665;SDS011;20725;51.196;3.510;2023-04-12T06:34:48;13.93;;;3.87;;
15665;SDS011;20725;51.196;3.510;2023-04-12T06:37:16;8.17;;;3.30;;
15665;SDS011;20725;51.196;3.510;2023-04-12T06:39:43;9.13;;;2.93;;
15665;SDS011;20725;51.196;3.510;2023-04-12T06:42:11;14.93;;;3.30;;
15665;SDS011;20725;51.196;3.510;2023-04-12T06:44:39;14.37;;;4.40;;
15665;SDS011;20725;51.196;3.510;2023-04-12T06:47:07;15.07;;;3.67;;
15665;SDS011;20725;51.196;3.510;2023-04-12T06:49:35;15.63;;;3.73;;
15665;SDS011;20725;51.196;3.510;2023-04-12T06:52:02;16.23;;;4.27;;
15665;SDS011;20725;51.196;3.510;2023-04-12T06:57:00;15.33;;;3.43;;
15665;SDS011;20725;51.196;3.510;2023-04-12T06:59:27;13.07;;;3.93;;
15665;SDS011;20725;51.196;3.510;2023-04-12T07:01:55;12.83;;;3.70;;
15665;SDS011;20725;51.196;3.510;2023-04-12T07:04:22;16.43;;;3.73;;
15665;SDS011;20725;51.196;3.510;2023-04-12T07:06:50;13.83;;;4.10;;
15665;SDS011;20725;51.196;3.510;2023-04-12T07:09:17;13.40;;;3.50;;
15665;SDS011;20725;51.196;3.510;2023-04-12T07:11:44;13.90;;;3.53;;
15665;SDS011;20725;51.196;3.510;2023-04-12T07:14:14;18.33;;;4.37;;
15665;SDS011;20725;51.196;3.510;2023-04-12T07:16:42;13.10;;;4.43;;
15665;SDS011;20725;51.196;3.510;2023-04-12T07:19:09;16.93;;;3.80;;
15665;SDS011;20725;51.196;3.510;2023-04-12T07:21:37;16.47;;;4.40;;
15665;SDS011;20725;51.196;3.510;2023-04-12T07:24:04;11.87;;;3.67;;
15665;SDS011;20725;51.196;3.510;2023-04-12T07:26:32;13.10;;;3.57;;
15665;SDS011;20725;51.196;3.510;2023-04-12T07:28:59;13.60;;;3.30;;
15665;SDS011;20725;51.196;3.510;2023-04-12T07:31:28;19.20;;;3.90;;
15665;SDS011;20725;51.196;3.510;2023-04-12T07:33:56;11.30;;;3.83;;
15665;SDS011;20725;51.196;3.510;2023-04-12T07:36:23;11.97;;;4.43;;
15665;SDS011;20725;51.196;3.510;2023-04-12T07:38:51;16.47;;;4.60;;
15665;SDS011;20725;51.196;3.510;2023-04-12T07:41:20;15.00;;;3.73;;
15665;SDS011;20725;51.196;3.510;2023-04-12T07:43:48;15.47;;;3.97;;
15665;SDS011;20725;51.196;3.510;2023-04-12T07:46:15;16.53;;;3.90;;
15665;SDS011;20725;51.196;3.510;2023-04-12T07:48:44;19.17;;;4.53;;
15665;SDS011;20725;51.196;3.510;2023-04-12T07:51:11;11.83;;;4.23;;
15665;SDS011;20725;51.196;3.510;2023-04-12T07:53:39;16.30;;;4.17;;
15665;SDS011;20725;51.196;3.510;2023-04-12T07:56:06;11.90;;;4.20;;
15665;SDS011;20725;51.196;3.510;2023-04-12T07:58:34;17.67;;;4.40;;
15665;SDS011;20725;51.196;3.510;2023-04-12T08:01:02;21.67;;;4.37;;
15665;SDS011;20725;51.196;3.510;2023-04-12T08:03:32;10.10;;;3.47;;
15665;SDS011;20725;51.196;3.510;2023-04-12T08:09:02;11.43;;;4.03;;
15665;SDS011;20725;51.196;3.510;2023-04-12T08:11:29;10.77;;;4.47;;
15665;SDS011;20725;51.196;3.510;2023-04-12T08:13:59;10.50;;;3.37;;
15665;SDS011;20725;51.196;3.510;2023-04-12T08:16:27;11.07;;;3.63;;
15665;SDS011;20725;51.196;3.510;2023-04-12T08:18:55;7.97;;;3.33;;
15665;SDS011;20725;51.196;3.510;2023-04-12T08:21:23;11.40;;;4.10;;
15665;SDS011;20725;51.196;3.510;2023-04-12T08:23:51;10.67;;;3.47;;
15665;SDS011;20725;51.196;3.510;2023-04-12T08:26:20;16.97;;;3.87;;
15665;SDS011;20725;51.196;3.510;2023-04-12T08:28:47;10.57;;;3.67;;
15665;SDS011;20725;51.196;3.510;2023-04-12T08:31:15;15.20;;;3.93;;
15665;SDS011;20725;51.196;3.510;2023-04-12T08:33:43;10.70;;;3.20;;
15665;SDS011;20725;51.196;3.510;2023-04-12T08:36:10;11.80;;;3.83;;
15665;SDS011;20725;51.196;3.510;2023-04-12T08:38:37;9.17;;;3.20;;
15665;SDS011;20725;51.196;3.510;2023-04-12T08:41:05;11.30;;;3.50;;
15665;SDS011;20725;51.196;3.510;2023-04-12T08:43:36;16.23;;;3.73;;
15665;SDS011;20725;51.196;3.510;2023-04-12T08:46:04;13.80;;;3.93;;
15665;SDS011;20725;51.196;3.510;2023-04-12T08:48:32;8.20;;;3.23;;
15665;SDS011;20725;51.196;3.510;2023-04-12T08:51:00;15.87;;;3.77;;
15665;SDS011;20725;51.196;3.510;2023-04-12T08:53:27;11.40;;;4.10;;
15665;SDS011;20725;51.196;3.510;2023-04-12T08:55:57;12.77;;;4.03;;
15665;SDS011;20725;51.196;3.510;2023-04-12T08:58:25;15.13;;;4.83;;
15665;SDS011;20725;51.196;3.510;2023-04-12T09:00:54;15.80;;;4.17;;
15665;SDS011;20725;51.196;3.510;2023-04-12T09:03:22;12.87;;;4.07;;
15665;SDS011;20725;51.196;3.510;2023-04-12T09:05:50;20.53;;;5.13;;
15665;SDS011;20725;51.196;3.510;2023-04-12T09:08:17;18.00;;;4.40;;
15665;SDS011;20725;51.196;3.510;2023-04-12T09:10:45;19.27;;;4.33;;
15665;SDS011;20725;51.196;3.510;2023-04-12T09:13:12;14.70;;;4.07;;
15665;SDS011;20725;51.196;3.510;2023-04-12T09:15:47;13.00;;;4.50;;
15665;SDS011;20725;51.196;3.510;2023-04-12T09:18:17;20.90;;;4.87;;
15665;SDS011;20725;51.196;3.510;2023-04-12T09:20:44;15.17;;;4.60;;
15665;SDS011;20725;51.196;3.510;2023-04-12T09:23:18;18.33;;;4.80;;
15665;SDS011;20725;51.196;3.510;2023-04-12T09:25:46;18.17;;;4.30;;
15665;SDS011;20725;51.196;3.510;2023-04-12T09:28:17;14.97;;;3.93;;
15665;SDS011;20725;51.196;3.510;2023-04-12T09:30:45;16.70;;;4.10;;
15665;SDS011;20725;51.196;3.510;2023-04-12T09:33:17;16.20;;;4.20;;
15665;SDS011;20725;51.196;3.510;2023-04-12T09:35:45;10.90;;;3.43;;
15665;SDS011;20725;51.196;3.510;2023-04-12T09:38:13;13.70;;;3.57;;
15665;SDS011;20725;51.196;3.510;2023-04-12T09:40:41;9.90;;;3.20;;
15665;SDS011;20725;51.196;3.510;2023-04-12T09:43:08;14.00;;;3.70;;
15665;SDS011;20725;51.196;3.510;2023-04-12T09:45:36;14.20;;;3.17;;
15665;SDS011;20725;51.196;3.510;2023-04-12T09:48:06;16.97;;;4.07;;
15665;SDS011;20725;51.196;3.510;2023-04-12T09:50:45;15.90;;;3.90;;
15665;SDS011;20725;51.196;3.510;2023-04-12T09:53:15;14.00;;;3.47;;
15665;SDS011;20725;51.196;3.510;2023-04-12T09:55:43;8.50;;;3.70;;
15665;SDS011;20725;51.196;3.510;2023-04-12T09:58:10;9.63;;;3.77;;
15665;SDS011;20725;51.196;3.510;2023-04-12T10:00:39;13.73;;;3.87;;
15665;SDS011;20725;51.196;3.510;2023-04-12T10:03:08;19.03;;;4.37;;
15665;SDS011;20725;51.196;3.510;2023-04-12T10:05:38;13.73;;;3.67;;
15665;SDS011;20725;51.196;3.510;2023-04-12T10:08:09;9.77;;;3.57;;
15665;SDS011;20725;51.196;3.510;2023-04-12T10:10:37;12.13;;;3.10;;
15665;SDS011;20725;51.196;3.510;2023-04-12T10:13:04;8.40;;;2.80;;
15665;SDS011;20725;51.196;3.510;2023-04-12T10:15:34;8.17;;;2.63;;
15665;SDS011;20725;51.196;3.510;2023-04-12T10:18:02;8.83;;;2.77;;
15665;SDS011;20725;51.196;3.510;2023-04-12T10:20:30;6.83;;;2.53;;
15665;SDS011;20725;51.196;3.510;2023-04-12T10:22:58;8.60;;;2.83;;
15665;SDS011;20725;51.196;3.510;2023-04-12T10:25:27;9.50;;;3.03;;
15665;SDS011;20725;51.196;3.510;2023-04-12T10:27:55;9.30;;;2.57;;
15665;SDS011;20725;51.196;3.510;2023-04-12T10:30:24;8.67;;;3.10;;
15665;SDS011;20725;51.196;3.510;2023-04-12T10:33:11;9.07;;;2.30;;
15665;SDS011;20725;51.196;3.510;2023-04-12T10:35:49;4.90;;;1.70;;
15665;SDS011;20725;51.196;3.510;2023-04-12T10:38:17;3.27;;;1.60;;
15665;SDS011;20725;51.196;3.510;2023-04-12T10:43:28;2.90;;;1.57;;
15665;SDS011;20725;51.196;3.510;2023-04-12T10:45:56;5.33;;;2.30;;
15665;SDS011;20725;51.196;3.510;2023-04-12T10:48:29;4.33;;;2.30;;
15665;SDS011;20725;51.196;3.510;2023-04-12T10:51:14;12.67;;;3.50;;
15665;SDS011;20725;51.196;3.510;2023-04-12T10:53:47;8.53;;;2.73;;
15665;SDS011;20725;51.196;3.510;2023-04-12T10:59:02;5.53;;;2.10;;
15665;SDS011;20725;51.196;3.510;2023-04-12T11:01:30;4.80;;;1.93;;
15665;SDS011;20725;51.196;3.510;2023-04-12T11:06:46;2.97;;;1.40;;
15665;SDS011;20725;51.196;3.510;2023-04-12T11:09:18;2.50;;;1.40;;
15665;SDS011;20725;51.196;3.510;2023-04-12T11:11:45;2.77;;;1.37;;
15665;SDS011;20725;51.196;3.510;2023-04-12T11:14:15;2.90;;;1.33;;
15665;SDS011;20725;51.196;3.510;2023-04-12T11:19:28;3.83;;;1.40;;
15665;SDS011;20725;51.196;3.510;2023-04-12T11:21:55;5.00;;;1.50;;
15665;SDS011;20725;51.196;3.510;2023-04-12T11:24:23;2.40;;;1.30;;
15665;SDS011;20725;51.196;3.510;2023-04-12T11:26:51;1.80;;;1.10;;
15665;SDS011;20725;51.196;3.510;2023-04-12T11:29:23;3.57;;;1.20;;
15665;SDS011;20725;51.196;3.510;2023-04-12T11:31:50;1.30;;;0.80;;
15665;SDS011;20725;51.196;3.510;2023-04-12T11:34:19;1.57;;;0.97;;
15665;SDS011;20725;51.196;3.510;2023-04-12T11:36:46;2.27;;;1.00;;
15665;SDS011;20725;51.196;3.510;2023-04-12T11:39:14;2.23;;;1.03;;
15665;SDS011;20725;51.196;3.510;2023-04-12T11:41:42;4.60;;;1.20;;
15665;SDS011;20725;51.196;3.510;2023-04-12T11:44:10;2.50;;;1.30;;
15665;SDS011;20725;51.196;3.510;2023-04-12T11:46:38;4.40;;;1.47;;
15665;SDS011;20725;51.196;3.510;2023-04-12T11:49:06;2.83;;;1.10;;
15665;SDS011;20725;51.196;3.510;2023-04-12T11:51:33;5.20;;;1.20;;
15665;SDS011;20725;51.196;3.510;2023-04-12T11:54:00;3.50;;;1.40;;
15665;SDS011;20725;51.196;3.510;2023-04-12T11:56:28;2.60;;;1.30;;
15665;SDS011;20725;51.196;3.510;2023-04-12T11:58:56;2.17;;;1.27;;
15665;SDS011;20725;51.196;3.510;2023-04-12T12:01:23;1.57;;;0.70;;
15665;SDS011;20725;51.196;3.510;2023-04-12T12:03:53;1.80;;;1.00;;
15665;SDS011;20725;51.196;3.510;2023-04-12T12:06:20;2.53;;;1.00;;
15665;SDS011;20725;51.196;3.510;2023-04-12T12:08:48;3.17;;;1.50;;
15665;SDS011;20725;51.196;3.510;2023-04-12T12:11:15;1.63;;;1.40;;
15665;SDS011;20725;51.196;3.510;2023-04-12T12:13:44;3.27;;;1.60;;
15665;SDS011;20725;51.196;3.510;2023-04-12T12:16:15;2.00;;;1.50;;
15665;SDS011;20725;51.196;3.510;2023-04-12T12:18:44;3.07;;;1.70;;
15665;SDS011;20725;51.196;3.510;2023-04-12T12:21:16;2.67;;;1.87;;
15665;SDS011;20725;51.196;3.510;2023-04-12T12:23:44;3.33;;;2.10;;
15665;SDS011;20725;51.196;3.510;2023-04-12T12:26:17;2.27;;;1.63;;
15665;SDS011;20725;51.196;3.510;2023-04-12T12:28:48;2.90;;;1.43;;
15665;SDS011;20725;51.196;3.510;2023-04-12T12:31:17;4.57;;;1.50;;
15665;SDS011;20725;51.196;3.510;2023-04-12T12:33:45;3.57;;;1.50;;
15665;SDS011;20725;51.196;3.510;2023-04-12T12:36:17;3.07;;;1.40;;
15665;SDS011;20725;51.196;3.510;2023-04-12T12:38:45;3.07;;;1.43;;
15665;SDS011;20725;51.196;3.510;2023-04-12T12:41:16;2.20;;;1.40;;
15665;SDS011;20725;51.196;3.510;2023-04-12T12:43:44;6.23;;;1.10;;
15665;SDS011;20725;51.196;3.510;2023-04-12T12:46:11;3.60;;;1.37;;
15665;SDS011;20725;51.196;3.510;2023-04-12T12:48:39;5.70;;;1.47;;
15665;SDS011;20725;51.196;3.510;2023-04-12T12:51:06;5.33;;;1.80;;
15665;SDS011;20725;51.196;3.510;2023-04-12T12:53:35;4.63;;;1.63;;
15665;SDS011;20725;51.196;3.510;2023-04-12T12:56:02;2.10;;;1.37;;
15665;SDS011;20725;51.196;3.510;2023-04-12T12:58:30;2.60;;;1.23;;
15665;SDS011;20725;51.196;3.510;2023-04-12T13:00:57;3.10;;;1.10;;
15665;SDS011;20725;51.196;3.510;2023-04-12T13:03:24;2.60;;;1.40;;
15665;SDS011;20725;51.196;3.510;2023-04-12T13:05:51;4.13;;;1.73;;
15665;SDS011;20725;51.196;3.510;2023-04-12T13:08:19;4.20;;;1.60;;
15665;SDS011;20725;51.196;3.510;2023-04-12T13:10:48;4.03;;;1.30;;
15665;SDS011;20725;51.196;3.510;2023-04-12T13:13:16;3.97;;;1.60;;
15665;SDS011;20725;51.196;3.510;2023-04-12T13:15:43;4.47;;;1.43;;
15665;SDS011;20725;51.196;3.510;2023-04-12T13:18:11;3.73;;;1.53;;
15665;SDS011;20725;51.196;3.510;2023-04-12T13:20:40;3.67;;;1.70;;
15665;SDS011;20725;51.196;3.510;2023-04-12T13:23:08;3.47;;;1.40;;
15665;SDS011;20725;51.196;3.510;2023-04-12T13:25:35;4.20;;;1.10;;
15665;SDS011;20725;51.196;3.510;2023-04-12T13:28:04;2.20;;;1.20;;
15665;SDS011;20725;51.196;3.510;2023-04-12T13:30:31;2.93;;;1.40;;
15665;SDS011;20725;51.196;3.510;2023-04-12T13:32:58;4.60;;;1.40;;
15665;SDS011;20725;51.196;3.510;2023-04-12T13:35:25;2.57;;;1.03;;
15665;SDS011;20725;51.196;3.510;2023-04-12T13:37:52;3.23;;;1.23;;
15665;SDS011;20725;51.196;3.510;2023-04-12T13:40:20;5.23;;;1.43;;
15665;SDS011;20725;51.196;3.510;2023-04-12T13:42:47;5.97;;;1.60;;
15665;SDS011;20725;51.196;3.510;2023-04-12T13:45:15;3.40;;;1.40;;
15665;SDS011;20725;51.196;3.510;2023-04-12T13:47:43;6.60;;;2.00;;
15665;SDS011;20725;51.196;3.510;2023-04-12T13:50:10;2.77;;;1.40;;
15665;SDS011;20725;51.196;3.510;2023-04-12T13:52:37;4.07;;;1.67;;
15665;SDS011;20725;51.196;3.510;2023-04-12T13:55:05;3.70;;;1.87;;
15665;SDS011;20725;51.196;3.510;2023-04-12T13:57:33;6.40;;;1.80;;
15665;SDS011;20725;51.196;3.510;2023-04-12T14:00:00;4.00;;;1.90;;
15665;SDS011;20725;51.196;3.510;2023-04-12T14:02:29;4.27;;;2.07;;
15665;SDS011;20725;51.196;3.510;2023-04-12T14:04:56;7.40;;;1.60;;
15665;SDS011;20725;51.196;3.510;2023-04-12T14:07:24;4.73;;;1.77;;
15665;SDS011;20725;51.196;3.510;2023-04-12T14:09:53;4.47;;;1.80;;
15665;SDS011;20725;51.196;3.510;2023-04-12T14:12:21;7.80;;;2.00;;
15665;SDS011;20725;51.196;3.510;2023-04-12T14:14:49;5.63;;;1.27;;
15665;SDS011;20725;51.196;3.510;2023-04-12T14:17:16;4.90;;;1.70;;
15665;SDS011;20725;51.196;3.510;2023-04-12T14:19:45;4.40;;;1.50;;
15665;SDS011;20725;51.196;3.510;2023-04-12T14:22:12;6.43;;;1.80;;
15665;SDS011;20725;51.196;3.510;2023-04-12T14:24:39;4.03;;;2.00;;
15665;SDS011;20725;51.196;3.510;2023-04-12T14:27:06;3.97;;;2.07;;
15665;SDS011;20725;51.196;3.510;2023-04-12T14:29:35;6.53;;;1.87;;
15665;SDS011;20725;51.196;3.510;2023-04-12T14:32:03;5.73;;;2.07;;
15665;SDS011;20725;51.196;3.510;2023-04-12T14:34:31;5.30;;;1.90;;
15665;SDS011;20725;51.196;3.510;2023-04-12T14:36:59;6.93;;;2.03;;
15665;SDS011;20725;51.196;3.510;2023-04-12T14:39:27;4.40;;;1.90;;
15665;SDS011;20725;51.196;3.510;2023-04-12T14:41:54;5.83;;;1.90;;
15665;SDS011;20725;51.196;3.510;2023-04-12T14:44:22;4.67;;;1.73;;
15665;SDS011;20725;51.196;3.510;2023-04-12T14:46:49;4.77;;;2.00;;
15665;SDS011;20725;51.196;3.510;2023-04-12T14:49:16;4.80;;;2.07;;
15665;SDS011;20725;51.196;3.510;2023-04-12T14:51:43;4.97;;;1.80;;
15665;SDS011;20725;51.196;3.510;2023-04-12T14:54:12;5.63;;;1.83;;
15665;SDS011;20725;51.196;3.510;2023-04-12T14:56:39;5.90;;;2.20;;
15665;SDS011;20725;51.196;3.510;2023-04-12T14:59:06;5.47;;;1.87;;
15665;SDS011;20725;51.196;3.510;2023-04-12T15:01:33;5.07;;;1.90;;
15665;SDS011;20725;51.196;3.510;2023-04-12T15:04:01;4.67;;;1.87;;
15665;SDS011;20725;51.196;3.510;2023-04-12T15:06:30;7.30;;;1.90;;
15665;SDS011;20725;51.196;3.510;2023-04-12T15:08:59;6.40;;;1.80;;
15665;SDS011;20725;51.196;3.510;2023-04-12T15:11:29;4.03;;;1.80;;
15665;SDS011;20725;51.196;3.510;2023-04-12T15:13:59;6.10;;;2.03;;